Flight Track Log - Related Links

Times and Time Zones

All times are in EDT time to prevent confusion due to time zone crossing. See the N42HN flight status page for this flight to view local times or setup timezone preferences in your user account.

Time Position Orientation Groundspeed Altitude Reporting Facility
EDT Latitude Longitude Course Direction KTS MPH feet Rate Location/Type
Fri 02:49:56 PM 41.0014 -81.5242 276° West 219 252 3,000  Level Cleveland Center
Fri 02:50:56 PM 40.9508 -81.5728 216° Southwest 242 278 6,600 3,500 Climbing Cleveland Center
Fri 02:51:56 PM 40.8983 -81.6325 221° Southwest 251 289 10,000 3,350 Climbing Cleveland Center
Fri 02:52:56 PM 40.8497 -81.6839 219° Southwest 256 295 13,300 3,250 Climbing Cleveland Center
Fri 02:53:56 PM 40.8053 -81.7517 229° Southwest 256 295 16,500 2,900 Climbing Cleveland Center
Fri 02:54:56 PM 40.8147 -81.8450 278° West 238 274 19,100 2,350 Climbing Cleveland Center
Fri 02:55:00 PM 40.8305 -82.0122 276° West  Level FlightAware Approximate
Fri 02:55:56 PM 40.8303 -81.9497 281° West 272 313 21,200  Level Cleveland Center
Fri 02:56:56 PM 40.8392 -82.0678 276° West 310 357 23,000 1,950 Climbing Cleveland Center
Fri 02:57:56 PM 40.8500 -82.2000 276° West 331 381 25,100 2,350 Climbing Cleveland Center
Fri 02:58:56 PM 40.8922 -82.3081 297° West 331 381 27,700 1,850 Climbing Cleveland Center
Fri 02:59:56 PM 40.9342 -82.4247 295° West 343 395 28,800 950 Climbing Cleveland Center
Fri 03:00:56 PM 40.9819 -82.5469 297° West 355 409 29,600 1,100 Climbing Cleveland Center
Fri 03:01:56 PM 41.0278 -82.6722 296° West 379 436 31,000 1,800 Climbing Cleveland Center
Fri 03:02:56 PM 41.0775 -82.7978 298° West 386 444 33,200 1,750 Climbing Cleveland Center
Fri 03:03:56 PM 41.1189 -82.9178 295° West 368 423 34,500 850 Climbing Cleveland Center
Fri 03:04:56 PM 41.1664 -83.0408 297° West 363 418 34,900 250 Climbing Cleveland Center
Fri 03:05:56 PM 41.2075 -83.1583 295° West 369 425 35,000 50 Climbing Cleveland Center
Fri 03:06:56 PM 41.2567 -83.2928 296° West 386 444 35,000 150 Level Cleveland Center
Fri 03:07:56 PM 41.2886 -83.4378 286° West 400 460 35,300 500 Climbing Cleveland Center
Fri 03:08:56 PM 41.3206 -83.5719 288° West 400 460 36,000 350 Climbing Cleveland Center
Fri 03:09:56 PM 41.3542 -83.7147 287° West 405 466 36,000 250 Level Cleveland Center
Fri 03:10:56 PM 41.3878 -83.8547 288° West 405 466 36,500 559 Climbing Cleveland Center
Fri 03:11:54 PM 41.4272 -83.9853 292° West 395 455 37,100 595 Climbing Chicago Center
Fri 03:12:57 PM 41.4600 -84.1222 288° West 391 450 37,700 528 Climbing Chicago Center
Fri 03:13:59 PM 41.4914 -84.2567 287° West 383 441 38,200 532 Climbing Chicago Center
Fri 03:15:01 PM 41.5314 -84.4164 289° West 380 437 38,800 435 Climbing Chicago Center
Fri 03:16:03 PM 41.5608 -84.5511 286° West 379 436 39,100 242 Climbing Chicago Center
Fri 03:17:05 PM 41.6008 -84.6803 293° West 381 438 39,300 290 Climbing Chicago Center
Fri 03:18:07 PM 41.6469 -84.8044 296° West 377 434 39,700 339 Climbing Chicago Center
Fri 03:19:09 PM 41.6911 -84.9311 295° West 379 436 40,000 145 Climbing Chicago Center
Fri 03:20:11 PM 41.7458 -85.0808 296° West 378 435 40,000  Level Chicago Center
Fri 03:21:13 PM 41.7914 -85.2044 296° West 376 433 40,000  Level Chicago Center
Fri 03:22:16 PM 41.8331 -85.3303 294° West 376 433 40,000  Level Chicago Center
Fri 03:23:18 PM 41.8781 -85.4533 296° West 374 430 40,000  Level Chicago Center
Fri 03:24:20 PM 41.9278 -85.6025 294° West 370 426 40,000  Level Chicago Center
Fri 03:25:22 PM 41.9728 -85.7253 296° West 369 425 40,000  Level Chicago Center
Fri 03:26:24 PM 42.0150 -85.8494 295° West 368 423 40,000  Level Chicago Center
Fri 03:27:26 PM 42.0583 -85.9747 295° West 371 427 40,000  Level Chicago Center
Fri 03:28:28 PM 42.1017 -86.0978 295° West 367 422 40,000  Level Chicago Center
Fri 03:29:30 PM 42.1506 -86.2492 294° West 369 425 40,000  Level Chicago Center
Fri 03:30:32 PM 42.1972 -86.3717 297° West 369 425 40,000  Level Chicago Center
Fri 03:31:35 PM 42.2342 -86.5000 291° West 368 423 40,000  Level Chicago Center
Fri 03:32:37 PM 42.2806 -86.6231 297° West 368 423 40,000  Level Chicago Center
Fri 03:33:39 PM 42.3228 -86.7531 294° West 370 426 40,000  Level Chicago Center
Fri 03:34:41 PM 42.3622 -86.8789 293° West 367 422 40,000  Level Chicago Center
Fri 03:35:43 PM 42.4164 -87.0267 296° West 368 423 40,000  Level Chicago Center
Fri 03:36:45 PM 42.4531 -87.1536 291° West 369 425 40,000  Level Chicago Center
Fri 03:37:47 PM 42.4975 -87.2789 296° West 373 429 40,000  Level Chicago Center
Fri 03:38:49 PM 42.5378 -87.4056 293° West 371 427 40,000  Level Chicago Center
Fri 03:39:51 PM 42.5797 -87.5319 294° West 371 427 40,000  Level Chicago Center
Fri 03:40:53 PM 42.6267 -87.6775 294° West 373 429 40,000  Level Chicago Center
Fri 03:41:55 PM 42.6678 -87.8056 294° West 370 426 40,000  Level Chicago Center
Fri 03:42:57 PM 42.7100 -87.9339 294° West 371 427 40,000  Level Chicago Center
Fri 03:43:59 PM 42.7569 -88.0869 293° West 373 429 40,000  Level Chicago Center
Fri 03:45:01 PM 42.7983 -88.2150 294° West 370 426 40,000  Level Chicago Center
Fri 03:46:03 PM 42.8406 -88.3419 294° West 370 426 40,000  Level Chicago Center
Fri 03:47:05 PM 42.8794 -88.4750 292° West 373 429 40,000  Level Chicago Center
Fri 03:48:07 PM 42.9214 -88.6039 294° West 371 427 40,000  Level Chicago Center
Fri 03:49:09 PM 42.9603 -88.7333 292° West 366 421 40,000  Level Chicago Center
Fri 03:50:11 PM 43.0092 -88.8847 294° West 370 426 40,000  Level Chicago Center
Fri 03:51:13 PM 43.0486 -89.0147 293° West 367 422 40,000  Level Chicago Center
Fri 03:52:15 PM 43.0878 -89.1436 293° West 366 421 40,000  Level Chicago Center
Fri 03:53:17 PM 43.1269 -89.2731 293° West 366 421 40,000  Level Chicago Center
Fri 03:54:19 PM 43.1689 -89.4033 294° West 371 427 40,000  Level Chicago Center
Fri 03:55:21 PM 43.2081 -89.5344 292° West 371 427 40,000  Level Chicago Center
Fri 03:56:23 PM 43.2461 -89.6644 292° West 368 423 40,000  Level Chicago Center
Fri 03:57:25 PM 43.2900 -89.8203 291° West 374 430 40,000  Level Chicago Center
Fri 03:58:27 PM 43.3311 -89.9503 294° West 372 428 40,000  Level Chicago Center
Fri 03:59:29 PM 43.3689 -90.0844 291° West 374 430 40,000  Level Chicago Center
Fri 04:00:31 PM 43.4092 -90.2178 293° West 378 435 40,000  Level Chicago Center
Fri 04:01:33 PM 43.4481 -90.3447 293° West 375 432 40,000  Level Chicago Center
Fri 04:02:34 PM 43.4914 -90.5050 290° West 375 432 40,000  Level Chicago Center
Fri 04:03:36 PM 43.5325 -90.6347 294° West 374 430 40,000  Level Chicago Center
Fri 04:04:32 PM 43.5622 -90.7419 291° West 376 433 40,000  Level Minneapolis Center
Fri 04:05:34 PM 43.6083 -90.8983 292° West 374 430 40,000  Level Minneapolis Center
Fri 04:06:36 PM 43.6467 -91.0297 292° West 373 429 40,000  Level Minneapolis Center
Fri 04:07:38 PM 43.6836 -91.1617 291° West 374 430 40,000  Level Minneapolis Center
Fri 04:08:41 PM 43.7211 -91.2931 292° West 373 429 40,000  Level Minneapolis Center
Fri 04:09:43 PM 43.7653 -91.4547 291° West 377 434 40,000  Level Minneapolis Center
Fri 04:10:45 PM 43.8044 -91.5875 292° West 378 435 40,000  Level Minneapolis Center
Fri 04:11:47 PM 43.8450 -91.7336 291° West 375 432 40,000  Level Minneapolis Center
Fri 04:12:49 PM 43.8808 -91.8681 290° West 373 429 40,000  Level Minneapolis Center
Fri 04:13:51 PM 43.9189 -92.0014 292° West 373 429 40,000  Level Minneapolis Center
Fri 04:14:53 PM 43.9531 -92.1347 290° West 369 425 40,000  Level Minneapolis Center
Fri 04:15:55 PM 43.9900 -92.2667 291° West 369 425 40,000  Level Minneapolis Center
Fri 04:16:58 PM 44.0317 -92.4250 290° West 365 420 40,000  Level Minneapolis Center
Fri 04:18:00 PM 44.0689 -92.5586 291° West 369 425 40,000  Level Minneapolis Center
Fri 04:19:02 PM 44.1033 -92.6906 290° West 365 420 40,000  Level Minneapolis Center
Fri 04:20:16 PM 44.1458 -92.8528 290° West 371 427 40,000  Level Minneapolis Center
Fri 04:21:18 PM 44.1819 -92.9869 291° West 371 427 40,000  Level Minneapolis Center
Fri 04:22:21 PM 44.2164 -93.1233 289° West 372 428 40,000  Level Minneapolis Center
Fri 04:23:23 PM 44.2581 -93.2844 290° West 369 425 40,000  Level Minneapolis Center
Fri 04:24:25 PM 44.2950 -93.4169 291° West 366 421 40,000  Level Minneapolis Center
Fri 04:25:27 PM 44.3275 -93.5514 289° West 365 420 40,000  Level Minneapolis Center
Fri 04:26:29 PM 44.3628 -93.6844 290° West 365 420 40,000  Level Minneapolis Center
Fri 04:27:31 PM 44.3953 -93.8172 289° West 363 418 40,000  Level Minneapolis Center
Fri 04:28:33 PM 44.4303 -93.9494 290° West 362 417 40,000  Level Minneapolis Center
Fri 04:29:35 PM 44.4633 -94.0839 289° West 365 420 40,000  Level Minneapolis Center
Fri 04:30:37 PM 44.5028 -94.2431 289° West 364 419 40,000  Level Minneapolis Center
Fri 04:31:40 PM 44.5383 -94.3753 291° West 363 418 40,000 -432 Level Minneapolis Center
Fri 04:32:42 PM 44.5686 -94.5131 287° West 369 425 39,100 -726 Descending Minneapolis Center
Fri 04:33:44 PM 44.6042 -94.6439 291° West 368 423 38,500 -871 Descending Minneapolis Center
Fri 04:34:46 PM 44.6397 -94.8061 287° West 365 420 37,300 -1,065 Descending Minneapolis Center
Fri 04:35:48 PM 44.6733 -94.9367 290° West 360 414 36,300 -629 Descending Minneapolis Center
Fri 04:36:50 PM 44.7044 -95.0678 289° West 357 411 36,000 -145 Descending Minneapolis Center
Fri 04:37:52 PM 44.7325 -95.1992 287° West 354 407 36,000  Level Minneapolis Center
Fri 04:38:54 PM 44.7678 -95.3308 291° West 360 414 36,000  Level Minneapolis Center
Fri 04:39:56 PM 44.7967 -95.4661 287° West 363 418 36,000  Level Minneapolis Center
Fri 04:40:58 PM 44.8369 -95.6283 289° West 368 423 36,000  Level Minneapolis Center
Fri 04:42:01 PM 44.8683 -95.7636 288° West 367 422 36,000  Level Minneapolis Center
Fri 04:43:03 PM 44.9003 -95.9003 288° West 370 426 36,000  Level Minneapolis Center
Fri 04:44:05 PM 44.9322 -96.0358 288° West 368 423 36,000  Level Minneapolis Center
Fri 04:45:07 PM 44.9617 -96.1728 287° West 367 422 36,000  Level Minneapolis Center
Fri 04:46:09 PM 45.0011 -96.3367 289° West 368 423 36,000 -242 Level Minneapolis Center
Fri 04:47:11 PM 45.0325 -96.4756 288° West 372 428 35,500 -1,403 Descending Minneapolis Center
Fri 04:48:13 PM 45.0619 -96.6131 287° West 369 425 33,100 -2,419 Descending Minneapolis Center
Fri 04:49:15 PM 45.0942 -96.7494 289° West 367 422 30,500 -1,839 Descending Minneapolis Center
Fri 04:50:17 PM 45.1161 -96.8592 286° West 365 420 29,300 -1,113 Descending Minneapolis Center
Fri 04:51:19 PM 45.1614 -97.0550 288° West 375 432 28,200 -2,160 Descending Minneapolis Center
Fri 04:52:22 PM 45.1936 -97.1981 288° West 381 438 24,800 -2,832 Descending Minneapolis Center
Fri 04:53:24 PM 45.2253 -97.3461 287° West 391 450 22,300 -2,806 Descending Minneapolis Center
Fri 04:54:26 PM 45.2569 -97.4931 287° West 390 449 19,000 -3,435 Descending Minneapolis Center
Fri 04:55:28 PM 45.2881 -97.6383 287° West 386 444 15,200 -3,677 Descending Minneapolis Center
Fri 04:56:30 PM 45.3214 -97.8039 286° West 367 422 11,400 -2,613 Descending Minneapolis Center
Fri 04:57:32 PM 45.3444 -97.9189 286° West 321 369 9,800 -2,032 Descending Minneapolis Center
Fri 04:58:34 PM 45.3664 -98.0186 287° West 272 313 7,200 -2,371 Descending Minneapolis Center
Fri 04:59:36 PM 45.3814 -98.1206 282° West 266 306 4,900 -1,417 Descending Minneapolis Center
Fri 05:00:41 PM 45.3886 -98.2397 275° West 265 305 4,200 -646 Descending Minneapolis Center
Fri 05:02:00 PM 45.4333 -98.4106 270° West  Level FlightAware Approximate
Fri 05:09:00 PM 45.4333 -98.4167 270° West  Level FlightAware Approximate

Login

Don't have an account? Register now (free) for customized features, flight alerts, and more!